Terminal Aerodrome Forecast
Issued by NWS

Home | Current Version | Previous Version | Text Only | Print | Product List | Glossary On
Versions: 1 2 3 4 5 6 7 8 9 10 11 12 13 14 15
000
FTUS46 KMFR 182300
TAFLMT
TAF
KLMT 182339Z 1900/1924 31009KT P6SM BKN070
     FM191300 00000KT 4SM BR SCT003
     FM191600 VRB03KT P6SM FEW010
     FM192000 02005KT P6SM SKC=

USA.gov is the U.S. government's official web portal to all federal, state and local government web resources and services.